createdAt,value
2017-08-05T00:00:05.412Z,47.6
2017-08-05T00:02:05.381Z,47.8
2017-08-05T00:04:05.125Z,47.8
2017-08-05T00:06:08.341Z,47.8
2017-08-05T00:08:05.139Z,47.6
2017-08-05T00:10:05.827Z,47.9
2017-08-05T00:12:05.552Z,47.8
2017-08-05T00:14:05.352Z,48
2017-08-05T00:16:05.083Z,47.8
2017-08-05T00:18:06.736Z,47.9
2017-08-05T00:20:11.272Z,48
2017-08-05T00:22:05.246Z,48
2017-08-05T00:24:05.438Z,47.6
2017-08-05T00:26:05.162Z,47.6
2017-08-05T00:28:05.384Z,47.8
2017-08-05T00:30:05.635Z,48
2017-08-05T00:32:05.459Z,48
2017-08-05T00:34:05.839Z,48
2017-08-05T00:36:05.571Z,48.1
2017-08-05T00:38:08.099Z,48.1
2017-08-05T00:40:10.945Z,48.4
2017-08-05T00:42:05.203Z,48.4
2017-08-05T00:44:06.059Z,48.5
2017-08-05T00:46:05.313Z,48.9
2017-08-05T00:48:05.023Z,49.1
2017-08-05T00:50:05.578Z,48.9
2017-08-05T00:52:05.320Z,48.7
2017-08-05T00:54:05.166Z,49.2
2017-08-05T00:56:05.902Z,49.1
2017-08-05T00:58:05.610Z,49.2
2017-08-05T01:00:05.332Z,49.2
2017-08-05T01:02:07.736Z,49.2
2017-08-05T01:04:05.481Z,49.2
2017-08-05T01:06:05.163Z,48.9
2017-08-05T01:08:06.003Z,48.9
2017-08-05T01:10:08.247Z,48.9
2017-08-05T01:12:05.553Z,49
2017-08-05T01:14:05.852Z,49.1
2017-08-05T01:16:08.077Z,49.3
2017-08-05T01:18:05.535Z,49.6
2017-08-05T01:20:05.460Z,49.5
2017-08-05T01:22:05.147Z,49.4
2017-08-05T01:24:08.357Z,49.5
2017-08-05T01:26:05.195Z,49.4
2017-08-05T01:28:05.933Z,49.5
2017-08-05T01:30:08.187Z,49.5
2017-08-05T01:32:06.115Z,49.5
2017-08-05T01:34:10.894Z,49.6
2017-08-05T01:36:05.625Z,49.6
2017-08-05T01:38:08.037Z,49.5
2017-08-05T01:40:05.307Z,49.5
2017-08-05T01:42:05.227Z,49.7
2017-08-05T01:44:05.788Z,49.5
2017-08-05T01:46:13.081Z,49.6
2017-08-05T01:48:05.819Z,49.6
2017-08-05T01:50:08.254Z,49.5
2017-08-05T01:52:05.940Z,49.5
2017-08-05T01:54:05.703Z,49.4
2017-08-05T01:56:08.027Z,49.2
2017-08-05T01:58:08.279Z,49.1
2017-08-05T02:00:06.052Z,48.9
2017-08-05T02:02:05.908Z,49.2
2017-08-05T02:04:05.173Z,49.1
2017-08-05T02:06:05.943Z,49
2017-08-05T02:08:05.666Z,49
2017-08-05T02:10:07.979Z,49.1
2017-08-05T02:12:05.729Z,49.2
2017-08-05T02:14:06.153Z,49.3
2017-08-05T02:16:05.394Z,49.3
2017-08-05T02:18:05.262Z,49.5
2017-08-05T02:20:06.061Z,49.3
2017-08-05T02:22:05.753Z,49.5
2017-08-05T02:24:05.469Z,49.3
2017-08-05T02:26:07.833Z,49.4
2017-08-05T02:28:05.549Z,49.4
2017-08-05T02:30:10.437Z,49.4
2017-08-05T02:32:05.388Z,49.3
2017-08-05T02:34:05.053Z,49.6
2017-08-05T02:36:05.764Z,49.5
2017-08-05T02:38:05.559Z,49.5
2017-08-05T02:40:05.286Z,49.6
2017-08-05T02:42:06.065Z,49.6
2017-08-05T02:44:05.930Z,49.5
2017-08-05T02:46:08.164Z,49.5
2017-08-05T02:48:05.441Z,49.5
2017-08-05T02:50:10.384Z,49.3
2017-08-05T02:52:10.199Z,49.6
2017-08-05T02:54:05.951Z,49.5
2017-08-05T02:56:05.424Z,49.6
2017-08-05T02:58:05.235Z,49.9
2017-08-05T03:00:11.003Z,49.8
2017-08-05T03:02:05.871Z,49.8
2017-08-05T03:04:08.122Z,50.1
2017-08-05T03:06:07.975Z,50.1
2017-08-05T03:08:05.735Z,50.2
2017-08-05T03:10:05.768Z,50.4
2017-08-05T03:12:05.529Z,50.3
2017-08-05T03:14:05.347Z,50.1
2017-08-05T03:16:05.074Z,50.5
2017-08-05T03:18:06.013Z,50.3
2017-08-05T03:20:05.721Z,50.1
2017-08-05T03:22:05.430Z,50.5
2017-08-05T03:24:05.678Z,50.6
2017-08-05T03:26:05.463Z,50.7
2017-08-05T03:28:07.749Z,50.7
2017-08-05T03:30:05.428Z,50.7
2017-08-05T03:32:10.345Z,50.8
2017-08-05T03:34:05.057Z,50.8
2017-08-05T03:36:05.362Z,50.7
2017-08-05T03:38:05.201Z,50.8
2017-08-05T03:40:05.893Z,50.8
2017-08-05T03:42:05.593Z,50.9
2017-08-05T03:44:05.997Z,51.2
2017-08-05T03:46:05.711Z,51.3
2017-08-05T03:48:05.416Z,51.4
2017-08-05T03:50:05.397Z,51.3
2017-08-05T03:52:08.194Z,51.6
2017-08-05T03:54:11.039Z,51.5
2017-08-05T03:56:05.936Z,51.5
2017-08-05T03:58:05.685Z,51.8
2017-08-05T04:00:05.420Z,51.7
2017-08-05T04:02:05.815Z,51.5
2017-08-05T04:04:05.658Z,52.1
2017-08-05T04:06:05.442Z,52.3
2017-08-05T04:08:05.192Z,52.3
2017-08-05T04:10:05.916Z,52.2
2017-08-05T04:12:05.678Z,52.2
2017-08-05T04:14:05.447Z,52
2017-08-05T04:16:05.107Z,52
2017-08-05T04:18:06.014Z,52.1
2017-08-05T04:20:05.822Z,52.1
2017-08-05T04:22:05.877Z,52.2
2017-08-05T04:24:05.654Z,52.2
2017-08-05T04:26:08.132Z,52.1
2017-08-05T04:28:06.030Z,52.4
2017-08-05T04:30:05.747Z,52.2
2017-08-05T04:32:05.530Z,52.4
2017-08-05T04:34:12.817Z,52.5
2017-08-05T04:36:05.550Z,52.5
2017-08-05T04:38:08.529Z,52.5
2017-08-05T04:40:05.796Z,52.6
2017-08-05T04:42:05.591Z,52.4
2017-08-05T04:44:05.445Z,52.6
2017-08-05T04:46:05.127Z,52.6
2017-08-05T04:48:07.923Z,52.9
2017-08-05T04:50:08.383Z,52.8
2017-08-05T04:52:05.106Z,52.8
2017-08-05T04:54:05.364Z,52.8
2017-08-05T04:56:13.419Z,53.7
2017-08-05T04:58:06.026Z,53.2
2017-08-05T05:00:08.259Z,53.1
2017-08-05T05:02:11.357Z,52.8
2017-08-05T05:04:10.108Z,52.9
2017-08-05T05:06:05.812Z,52.8
2017-08-05T05:08:05.675Z,53.1
2017-08-05T05:10:05.403Z,53.3
2017-08-05T05:12:05.201Z,53.6
2017-08-05T05:14:06.319Z,53.8
2017-08-05T05:16:08.164Z,53.9
2017-08-05T05:18:05.657Z,53.9
2017-08-05T05:20:05.723Z,53.8
2017-08-05T05:22:05.963Z,54.1
2017-08-05T05:24:12.926Z,53.9
2017-08-05T05:26:05.369Z,53.9
2017-08-05T05:28:08.103Z,53.7
2017-08-05T05:30:05.832Z,53.8
2017-08-05T05:32:08.371Z,53.5
2017-08-05T05:34:07.023Z,53.5
2017-08-05T05:36:05.073Z,53.8
2017-08-05T05:38:05.227Z,53.4
2017-08-05T05:40:08.478Z,53.2
2017-08-05T05:42:07.766Z,53.6
2017-08-05T05:44:05.104Z,53.6
2017-08-05T05:46:05.453Z,53.9
2017-08-05T05:48:15.266Z,53.5
2017-08-05T05:50:06.010Z,53.5
2017-08-05T05:52:05.716Z,53.6
2017-08-05T05:54:07.943Z,53.9
2017-08-05T05:56:05.489Z,53.6
2017-08-05T05:58:05.225Z,53.5
2017-08-05T06:00:05.997Z,53.7
2017-08-05T06:02:05.797Z,53.7
2017-08-05T06:04:08.008Z,53.4
2017-08-05T06:06:10.743Z,53.4
2017-08-05T06:08:10.454Z,53.4
2017-08-05T06:10:05.189Z,53.6
2017-08-05T06:12:05.859Z,53.9
2017-08-05T06:14:08.234Z,54.4
2017-08-05T06:16:05.987Z,54.4
2017-08-05T06:18:05.547Z,54.7
2017-08-05T06:20:05.268Z,54.6
2017-08-05T06:22:08.631Z,54.3
2017-08-05T06:24:05.392Z,54.3
2017-08-05T06:26:05.606Z,54.1
2017-08-05T06:28:05.354Z,53.9
2017-08-05T06:30:05.076Z,53.9
2017-08-05T06:32:05.466Z,53.9
2017-08-05T06:34:05.321Z,53.9
2017-08-05T06:36:05.026Z,53.9
2017-08-05T06:38:13.627Z,53.9
2017-08-05T06:40:05.393Z,53.9
2017-08-05T06:42:05.653Z,54.1
2017-08-05T06:44:06.084Z,53.9
2017-08-05T06:46:05.060Z,53.9
2017-08-05T06:48:05.794Z,54.1
2017-08-05T06:50:05.426Z,54.1
2017-08-05T06:52:05.189Z,54.1
2017-08-05T06:54:08.411Z,53.8
2017-08-05T06:56:07.678Z,54.1
2017-08-05T06:58:07.910Z,53.9
2017-08-05T07:00:05.612Z,53.9
2017-08-05T07:02:06.214Z,53.9
2017-08-05T07:04:05.446Z,54.1
2017-08-05T07:06:08.188Z,53.9
2017-08-05T07:08:05.936Z,54.1
2017-08-05T07:10:05.170Z,54.1
2017-08-05T07:12:08.398Z,53.9
2017-08-05T07:14:07.673Z,54.1
2017-08-05T07:16:07.992Z,54.8
2017-08-05T07:18:05.473Z,54.8
2017-08-05T07:20:05.437Z,54.5
2017-08-05T07:22:05.179Z,54
2017-08-05T07:24:05.956Z,53.9
2017-08-05T07:26:05.981Z,53.9
2017-08-05T07:28:05.682Z,53.9
2017-08-05T07:30:05.386Z,53.9
2017-08-05T07:32:05.280Z,53.7
2017-08-05T07:34:06.476Z,53.7
2017-08-05T07:36:07.734Z,53.1
2017-08-05T07:38:05.830Z,53.1
2017-08-05T07:40:05.061Z,53.1
2017-08-05T07:42:05.716Z,53
2017-08-05T07:44:05.608Z,52.8
2017-08-05T07:46:05.286Z,52.8
2017-08-05T07:48:06.054Z,52.4
2017-08-05T07:50:05.941Z,52.5
2017-08-05T07:52:05.638Z,52.5
2017-08-05T07:54:05.434Z,52.4
2017-08-05T07:56:07.927Z,52.6
2017-08-05T07:58:05.132Z,52.7
2017-08-05T08:00:05.389Z,52.6
2017-08-05T08:02:05.142Z,52.6
2017-08-05T08:04:05.835Z,52.7
2017-08-05T08:06:05.662Z,52.7
2017-08-05T08:08:05.434Z,52.6
2017-08-05T08:10:08.184Z,52.4
2017-08-05T08:12:05.908Z,52.5
2017-08-05T08:14:05.672Z,52.6
2017-08-05T08:16:13.046Z,52.8
2017-08-05T08:18:05.967Z,52.8
2017-08-05T08:20:10.845Z,52.6
2017-08-05T08:22:05.573Z,52.6
2017-08-05T08:24:05.265Z,52.6
2017-08-05T08:26:05.660Z,52.7
2017-08-05T08:28:05.380Z,52.8
2017-08-05T08:30:05.606Z,53.1
2017-08-05T08:32:05.636Z,52.8
2017-08-05T08:34:05.362Z,53.5
2017-08-05T08:36:05.112Z,53
2017-08-05T08:38:05.931Z,52.9
2017-08-05T08:40:05.652Z,53
2017-08-05T08:42:07.942Z,53
2017-08-05T08:44:06.029Z,53
2017-08-05T08:46:05.722Z,53
2017-08-05T08:48:05.448Z,53
2017-08-05T08:50:05.458Z,53.1
2017-08-05T08:52:08.395Z,53.2
2017-08-05T08:54:05.103Z,53.3
2017-08-05T08:56:05.870Z,53.1
2017-08-05T08:58:05.655Z,53.2
2017-08-05T09:00:05.896Z,53.2
2017-08-05T09:02:05.954Z,53.1
2017-08-05T09:04:05.230Z,52.9
2017-08-05T09:06:05.939Z,53.1
2017-08-05T09:08:08.358Z,53.1
2017-08-05T09:10:05.266Z,53.3
2017-08-05T09:12:05.954Z,53.2
2017-08-05T09:14:07.899Z,53.1
2017-08-05T09:16:05.640Z,53.1
2017-08-05T09:18:05.088Z,53.1
2017-08-05T09:20:05.327Z,53.2
2017-08-05T09:22:05.037Z,52.8
2017-08-05T09:24:05.832Z,52.8
2017-08-05T09:26:05.866Z,52.7
2017-08-05T09:28:05.064Z,52.6
2017-08-05T09:30:05.811Z,52.7
2017-08-05T09:32:08.240Z,52.7
2017-08-05T09:34:05.504Z,52.7
2017-08-05T09:36:05.195Z,52.6
2017-08-05T09:38:08.611Z,52.6
2017-08-05T09:40:05.374Z,52.6
2017-08-05T09:42:07.728Z,52.8
2017-08-05T09:44:06.301Z,52.8
2017-08-05T09:46:08.568Z,51.5
2017-08-05T09:48:05.351Z,51.9
2017-08-05T09:50:05.186Z,51.7
2017-08-05T09:52:05.474Z,51.9
2017-08-05T09:54:05.204Z,52
2017-08-05T09:56:06.049Z,51.9
2017-08-05T09:58:05.892Z,51.9
2017-08-05T10:00:05.633Z,51.8
2017-08-05T10:02:05.597Z,51.7
2017-08-05T10:04:07.844Z,51.9
2017-08-05T10:06:18.206Z,51.9
2017-08-05T10:08:05.524Z,51.9
2017-08-05T10:10:05.256Z,51.8
2017-08-05T10:12:06.318Z,52.3
2017-08-05T10:14:05.209Z,52.2
2017-08-05T10:16:05.991Z,51.7
2017-08-05T10:18:05.932Z,51.7
2017-08-05T10:20:05.782Z,51.7
2017-08-05T10:22:05.030Z,51.5
2017-08-05T10:24:05.400Z,51.4
2017-08-05T10:26:05.311Z,51.5
2017-08-05T10:28:06.118Z,51.6
2017-08-05T10:30:10.903Z,51.3
2017-08-05T10:32:08.178Z,51.2
2017-08-05T10:34:05.871Z,51.2
2017-08-05T10:36:05.585Z,51.3
2017-08-05T10:38:05.396Z,51.4
2017-08-05T10:40:05.109Z,51.6
2017-08-05T10:42:08.538Z,51.3
2017-08-05T10:44:05.328Z,51.4
2017-08-05T10:46:05.343Z,51.3
2017-08-05T10:48:05.034Z,51
2017-08-05T10:50:05.786Z,51.1
2017-08-05T10:52:08.125Z,51.1
2017-08-05T10:54:13.466Z,50.9
2017-08-05T10:56:10.751Z,51
2017-08-05T10:58:08.127Z,50.8
2017-08-05T11:00:05.977Z,50.8
2017-08-05T11:02:08.386Z,50.8
2017-08-05T11:04:08.158Z,50.6
2017-08-05T11:06:05.891Z,50.6
2017-08-05T11:08:05.597Z,50.6
2017-08-05T11:10:05.359Z,50.5
2017-08-05T11:12:05.080Z,50.5
2017-08-05T11:14:05.987Z,50.3
2017-08-05T11:16:07.769Z,50.5
2017-08-05T11:18:05.871Z,50.4
2017-08-05T11:20:05.204Z,50.4
2017-08-05T11:22:05.210Z,50.3
2017-08-05T11:24:11.000Z,50.2
2017-08-05T11:26:08.281Z,50.1
2017-08-05T11:28:06.099Z,50.1
2017-08-05T11:30:05.412Z,50.3
2017-08-05T11:32:05.153Z,50.3
2017-08-05T11:34:06.063Z,50.2
2017-08-05T11:36:05.522Z,50.1
2017-08-05T11:38:10.396Z,50
2017-08-05T11:40:05.136Z,50
2017-08-05T11:42:05.347Z,50
2017-08-05T11:44:05.248Z,50
2017-08-05T11:46:08.980Z,49.9
2017-08-05T11:48:05.695Z,49.9
2017-08-05T11:50:05.589Z,50.1
2017-08-05T11:52:08.331Z,50
2017-08-05T11:54:05.036Z,50
2017-08-05T11:56:05.889Z,50
2017-08-05T11:58:05.378Z,49.9
2017-08-05T12:00:05.092Z,49.9
2017-08-05T12:02:05.977Z,49.9
2017-08-05T12:04:08.267Z,49.8
2017-08-05T12:06:07.613Z,49.8
2017-08-05T12:08:07.964Z,49.8
2017-08-05T12:10:05.641Z,49.8
2017-08-05T12:12:05.315Z,49.8
2017-08-05T12:14:05.167Z,49.8
2017-08-05T12:16:08.407Z,49.7
2017-08-05T12:18:05.416Z,49.7
2017-08-05T12:20:05.219Z,49.9
2017-08-05T12:22:06.542Z,49.9
2017-08-05T12:24:05.773Z,49.8
2017-08-05T12:26:13.437Z,49.7
2017-08-05T12:28:05.088Z,49.8
2017-08-05T12:30:05.813Z,49.7
2017-08-05T12:32:10.388Z,49.7
2017-08-05T12:34:07.607Z,49.7
2017-08-05T12:36:05.335Z,49.7
2017-08-05T12:38:05.722Z,49.9
2017-08-05T12:40:05.457Z,49.9
2017-08-05T12:42:05.214Z,49.9
2017-08-05T12:44:05.561Z,49.9
2017-08-05T12:46:07.836Z,49.8
2017-08-05T12:48:05.550Z,49.8
2017-08-05T12:50:05.777Z,49.8
2017-08-05T12:52:07.555Z,49.8
2017-08-05T12:54:05.957Z,49.8
2017-08-05T12:56:05.719Z,49.7
2017-08-05T12:58:05.486Z,49.7
2017-08-05T13:00:05.751Z,49.6
2017-08-05T13:02:08.601Z,49.7
2017-08-05T13:04:05.313Z,49.7
2017-08-05T13:06:05.059Z,49.3
2017-08-05T13:08:05.530Z,49.2
2017-08-05T13:10:05.587Z,49.4
2017-08-05T13:12:05.294Z,49.1
2017-08-05T13:14:08.795Z,49.3
2017-08-05T13:16:05.505Z,49.3
2017-08-05T13:18:05.941Z,49.4
2017-08-05T13:20:05.689Z,49.3
2017-08-05T13:22:05.389Z,49.4
2017-08-05T13:24:05.068Z,49.5
2017-08-05T13:26:05.475Z,49.5
2017-08-05T13:28:05.722Z,49.4
2017-08-05T13:30:05.468Z,49.3
2017-08-05T13:32:05.315Z,49.1
2017-08-05T13:34:05.037Z,48.9
2017-08-05T13:36:05.257Z,48.8
2017-08-05T13:38:06.130Z,48.6
2017-08-05T13:40:05.347Z,48.5
2017-08-05T13:42:05.245Z,48.5
2017-08-05T13:44:08.723Z,48.5
2017-08-05T13:46:05.475Z,48.5
2017-08-05T13:48:10.282Z,48.9
2017-08-05T13:50:06.193Z,48.9
2017-08-05T13:52:10.999Z,49.5
2017-08-05T13:54:05.677Z,49.5
2017-08-05T13:56:06.199Z,49.6
2017-08-05T13:58:05.931Z,49.8
2017-08-05T14:00:05.611Z,50
2017-08-05T14:02:05.521Z,49.7
2017-08-05T14:04:05.253Z,49.9
2017-08-05T14:06:10.613Z,49.4
2017-08-05T14:08:07.932Z,49.9
2017-08-05T14:10:07.690Z,50.5
2017-08-05T14:12:05.970Z,50.5
2017-08-05T14:14:05.713Z,49.9
2017-08-05T14:16:05.406Z,49.4
2017-08-05T14:18:07.856Z,49.4
2017-08-05T14:20:07.906Z,49.4
2017-08-05T14:22:05.316Z,49.4
2017-08-05T14:24:05.079Z,49.4
2017-08-05T14:26:05.897Z,49.2
2017-08-05T14:28:05.682Z,49.2
2017-08-05T14:30:05.808Z,49.2
2017-08-05T14:32:05.578Z,49.2
2017-08-05T14:34:10.350Z,49.6
2017-08-05T14:36:05.079Z,49.6
2017-08-05T14:38:08.010Z,49.8
2017-08-05T14:40:05.818Z,49.8
2017-08-05T14:42:05.565Z,49.7
2017-08-05T14:44:05.331Z,49.4
2017-08-05T14:46:05.833Z,49.6
2017-08-05T14:48:05.591Z,49.6
2017-08-05T14:50:05.587Z,49.8
2017-08-05T14:52:05.388Z,49.7
2017-08-05T14:54:05.796Z,49.9
2017-08-05T14:56:05.577Z,50
2017-08-05T14:58:07.856Z,50.4
2017-08-05T15:00:05.638Z,50.4
2017-08-05T15:02:05.479Z,50.2
2017-08-05T15:04:07.752Z,50.1
2017-08-05T15:06:05.458Z,50.1
2017-08-05T15:08:05.300Z,49.9
2017-08-05T15:10:06.005Z,49.9
2017-08-05T15:12:05.234Z,50
2017-08-05T15:14:08.694Z,50.4
2017-08-05T15:16:05.391Z,50.4
2017-08-05T15:18:06.034Z,50.2
2017-08-05T15:20:16.003Z,50.1
2017-08-05T15:22:05.713Z,50.1
2017-08-05T15:24:05.376Z,50
2017-08-05T15:26:05.452Z,50.1
2017-08-05T15:28:05.183Z,50.1
2017-08-05T15:30:10.994Z,50.2
2017-08-05T15:32:05.722Z,50.1
2017-08-05T15:34:10.664Z,50.1
2017-08-05T15:36:07.898Z,50.4
2017-08-05T15:38:08.197Z,50.5
2017-08-05T15:40:08.518Z,50.4
2017-08-05T15:42:05.271Z,50.2
2017-08-05T15:44:08.584Z,50.7
2017-08-05T15:46:05.824Z,50.5
2017-08-05T15:48:05.572Z,50.7
2017-08-05T15:50:05.649Z,50.4
2017-08-05T15:52:07.920Z,50.1
2017-08-05T15:54:08.215Z,50.3
2017-08-05T15:56:06.031Z,50.3
2017-08-05T15:58:06.291Z,50.3
2017-08-05T16:00:05.179Z,50.3
2017-08-05T16:02:05.975Z,50.1
2017-08-05T16:04:05.698Z,50.1
2017-08-05T16:06:05.591Z,50.1
2017-08-05T16:08:13.103Z,50
2017-08-05T16:10:05.809Z,50.1
2017-08-05T16:12:08.089Z,50.1
2017-08-05T16:14:08.372Z,50.1
2017-08-05T16:16:05.136Z,50.1
2017-08-05T16:18:04.986Z,50
2017-08-05T16:20:05.807Z,49.8
2017-08-05T16:22:05.847Z,50.1
2017-08-05T16:24:05.576Z,50
2017-08-05T16:26:05.884Z,50.2
2017-08-05T16:28:05.119Z,50.2
2017-08-05T16:30:08.362Z,50.2
2017-08-05T16:32:05.277Z,50.2
2017-08-05T16:34:06.014Z,50.2
2017-08-05T16:36:08.242Z,50.1
2017-08-05T16:38:06.097Z,50.1
2017-08-05T16:40:05.837Z,50.1
2017-08-05T16:42:05.612Z,50.1
2017-08-05T16:44:05.527Z,50.1
2017-08-05T16:46:12.787Z,49.9
2017-08-05T16:48:05.486Z,49.9
2017-08-05T16:50:05.217Z,49.9
2017-08-05T16:52:06.019Z,49.9
2017-08-05T16:54:05.838Z,49.8
2017-08-05T16:56:08.226Z,49.8
2017-08-05T16:58:06.002Z,49.8
2017-08-05T17:00:08.232Z,50
2017-08-05T17:02:08.595Z,50
2017-08-05T17:04:05.326Z,50
2017-08-05T17:06:05.129Z,49.7
2017-08-05T17:08:06.047Z,49.7
2017-08-05T17:10:05.856Z,49.8
2017-08-05T17:12:05.547Z,49.7
2017-08-05T17:14:06.021Z,49.7
2017-08-05T17:16:05.244Z,49.3
2017-08-05T17:18:10.209Z,49.5
2017-08-05T17:20:11.177Z,49.3
2017-08-05T17:22:05.906Z,49.3
2017-08-05T17:24:05.131Z,49.4
2017-08-05T17:26:11.039Z,49.1
2017-08-05T17:28:05.747Z,49.1
2017-08-05T17:30:05.499Z,49
2017-08-05T17:32:05.523Z,49.1
2017-08-05T17:34:05.281Z,49
2017-08-05T17:36:05.593Z,48.7
2017-08-05T17:38:05.503Z,48.7
2017-08-05T17:40:05.264Z,48.7
2017-08-05T17:42:05.088Z,48.7
2017-08-05T17:44:06.002Z,48.7
2017-08-05T17:46:05.201Z,48.7
2017-08-05T17:48:05.938Z,48.7
2017-08-05T17:50:05.827Z,48.8
2017-08-05T17:52:05.524Z,48.5
2017-08-05T17:54:05.273Z,48.4
2017-08-05T17:56:16.337Z,48.5
2017-08-05T17:58:08.088Z,48.5
2017-08-05T18:00:05.061Z,48.5
2017-08-05T18:02:05.920Z,48.6
2017-08-05T18:04:05.929Z,49.5
2017-08-05T18:06:05.639Z,49.2
2017-08-05T18:08:08.029Z,49.2
2017-08-05T18:10:08.246Z,49.3
2017-08-05T18:12:05.957Z,49.2
2017-08-05T18:14:06.108Z,49.2
2017-08-05T18:16:05.859Z,49.1
2017-08-05T18:18:05.815Z,49.1
2017-08-05T18:20:07.577Z,49.2
2017-08-05T18:22:10.434Z,49.1
2017-08-05T18:24:07.762Z,49
2017-08-05T18:26:08.128Z,49
2017-08-05T18:28:08.483Z,48.9
2017-08-05T18:30:05.877Z,48.9
2017-08-05T18:32:07.868Z,48.8
2017-08-05T18:34:05.836Z,48.8
2017-08-05T18:36:08.378Z,48.8
2017-08-05T18:38:11.155Z,48.8
2017-08-05T18:40:05.029Z,48.8
2017-08-05T18:42:05.770Z,48.8
2017-08-05T18:44:05.206Z,48.7
2017-08-05T18:46:05.952Z,48.7
2017-08-05T18:48:05.670Z,48.7
2017-08-05T18:50:05.702Z,48.8
2017-08-05T18:52:07.981Z,49
2017-08-05T18:54:12.826Z,48.9
2017-08-05T18:56:05.577Z,48.9
2017-08-05T18:58:07.859Z,49
2017-08-05T19:00:05.619Z,49
2017-08-05T19:02:05.576Z,49.1
2017-08-05T19:04:05.325Z,49
2017-08-05T19:06:05.667Z,49
2017-08-05T19:08:05.378Z,49
2017-08-05T19:10:05.106Z,49.1
2017-08-05T19:12:05.321Z,49.1
2017-08-05T19:14:07.727Z,49.1
2017-08-05T19:16:18.137Z,49.3
2017-08-05T19:18:07.809Z,49.4
2017-08-05T19:20:05.043Z,49.3
2017-08-05T19:22:08.367Z,48.7
2017-08-05T19:24:05.387Z,48.7
2017-08-05T19:26:05.223Z,48.7
2017-08-05T19:28:05.965Z,48.7
2017-08-05T19:30:05.659Z,48.7
2017-08-05T19:32:10.754Z,49
2017-08-05T19:34:05.355Z,49
2017-08-05T19:36:05.072Z,49
2017-08-05T19:38:06.102Z,49
2017-08-05T19:40:05.835Z,49.1
2017-08-05T19:42:05.544Z,49.1
2017-08-05T19:44:05.540Z,49.2
2017-08-05T19:46:07.787Z,49.1
2017-08-05T19:48:05.538Z,49.2
2017-08-05T19:50:08.667Z,49.1
2017-08-05T19:52:05.994Z,49.2
2017-08-05T19:54:05.775Z,49.1
2017-08-05T19:56:05.696Z,49.2
2017-08-05T19:58:08.515Z,49.2
2017-08-05T20:00:06.739Z,49.2
2017-08-05T20:02:05.639Z,49.3
2017-08-05T20:04:05.344Z,49.3
2017-08-05T20:06:05.094Z,49.2
2017-08-05T20:08:10.902Z,49.2
2017-08-05T20:10:05.595Z,49.3
2017-08-05T20:12:05.286Z,49.3
2017-08-05T20:14:06.088Z,49.3
2017-08-05T20:16:07.858Z,49.3
2017-08-05T20:18:08.352Z,49.3
2017-08-05T20:20:10.142Z,49.3
2017-08-05T20:22:15.496Z,49.3
2017-08-05T20:24:15.318Z,49.3
2017-08-05T20:26:05.309Z,49.2
2017-08-05T20:28:06.685Z,49.3
2017-08-05T20:30:05.675Z,49.5
2017-08-05T20:32:05.587Z,49.4
2017-08-05T20:34:05.949Z,49.3
2017-08-05T20:36:08.478Z,49.3
2017-08-05T20:38:11.890Z,49.3
2017-08-05T20:40:08.177Z,49.3
2017-08-05T20:42:06.402Z,49.2
2017-08-05T20:44:07.736Z,48.9
2017-08-05T20:46:05.635Z,49.2
2017-08-05T20:48:07.921Z,48.8
2017-08-05T20:50:10.256Z,48.8
2017-08-05T20:52:13.523Z,48.7
2017-08-05T20:54:11.413Z,48.7
2017-08-05T20:56:07.668Z,48.8
2017-08-05T20:58:05.620Z,48.7
2017-08-05T21:00:09.158Z,48.8
2017-08-05T21:02:05.805Z,48.8
2017-08-05T21:04:10.557Z,48.6
2017-08-05T21:06:05.859Z,48.6
2017-08-05T21:08:06.076Z,48.6
2017-08-05T21:10:06.215Z,48.6
2017-08-05T21:12:05.153Z,48.8
2017-08-05T21:14:05.860Z,48.7
2017-08-05T21:16:05.318Z,48.8
2017-08-05T21:18:07.766Z,48.8
2017-08-05T21:20:05.873Z,48.7
2017-08-05T21:22:05.584Z,48.8
2017-08-05T21:24:06.455Z,48.7
2017-08-05T21:26:05.842Z,48.8
2017-08-05T21:28:05.979Z,48.7
2017-08-05T21:30:05.665Z,48.8
2017-08-05T21:32:10.445Z,48.6
2017-08-05T21:34:05.242Z,48.7
2017-08-05T21:36:05.577Z,48.7
2017-08-05T21:38:05.185Z,48.7
2017-08-05T21:40:05.455Z,48.6
2017-08-05T21:42:10.418Z,48.7
2017-08-05T21:44:05.262Z,48.6
2017-08-05T21:46:08.474Z,48.5
2017-08-05T21:48:05.259Z,48.5
2017-08-05T21:50:06.591Z,48.6
2017-08-05T21:52:07.905Z,48.5
2017-08-05T21:54:11.965Z,48.5
2017-08-05T21:56:05.641Z,48.3
2017-08-05T21:58:05.687Z,48.5
2017-08-05T22:00:05.382Z,48.3
2017-08-05T22:02:05.796Z,48.5
2017-08-05T22:04:05.061Z,48.5
2017-08-05T22:06:10.391Z,48.3
2017-08-05T22:08:05.268Z,48.3
2017-08-05T22:10:06.213Z,48.3
2017-08-05T22:12:05.931Z,48.3
2017-08-05T22:14:05.667Z,48.3
2017-08-05T22:16:05.889Z,48.3
2017-08-05T22:18:15.919Z,48.3
2017-08-05T22:20:07.764Z,48.3
2017-08-05T22:22:05.996Z,48.3
2017-08-05T22:24:05.668Z,48.3
2017-08-05T22:26:06.020Z,48.3
2017-08-05T22:28:05.738Z,48.3
2017-08-05T22:30:05.478Z,48.3
2017-08-05T22:32:05.228Z,48.3
2017-08-05T22:34:05.935Z,48.3
2017-08-05T22:36:05.164Z,48.3
2017-08-05T22:38:05.958Z,48.3
2017-08-05T22:40:05.770Z,48.3
2017-08-05T22:42:08.093Z,48
2017-08-05T22:44:05.824Z,48
2017-08-05T22:46:08.128Z,48.3
2017-08-05T22:48:05.855Z,48
2017-08-05T22:50:05.615Z,48.3
2017-08-05T22:52:05.310Z,48
2017-08-05T22:54:05.019Z,48.3
2017-08-05T22:56:05.888Z,48.3
2017-08-05T22:58:05.736Z,48
2017-08-05T23:00:05.417Z,48
2017-08-05T23:02:07.932Z,48
2017-08-05T23:04:05.633Z,48
2017-08-05T23:06:05.324Z,48
2017-08-05T23:08:05.041Z,48
2017-08-05T23:10:05.766Z,48
2017-08-05T23:12:05.058Z,48
2017-08-05T23:14:05.897Z,48
2017-08-05T23:16:05.588Z,48
2017-08-05T23:18:05.683Z,48
2017-08-05T23:20:05.772Z,48
2017-08-05T23:22:08.062Z,48
2017-08-05T23:24:05.777Z,48
2017-08-05T23:26:05.214Z,48
2017-08-05T23:28:08.084Z,47.8
2017-08-05T23:30:05.802Z,47.8
2017-08-05T23:32:05.560Z,47.8
2017-08-05T23:34:05.381Z,47.8
2017-08-05T23:36:05.084Z,47.6
2017-08-05T23:38:05.801Z,47.7
2017-08-05T23:40:05.518Z,47.7
2017-08-05T23:42:05.206Z,47.6
2017-08-05T23:44:05.169Z,47.6
2017-08-05T23:46:07.981Z,47.7
2017-08-05T23:48:08.259Z,47.6
2017-08-05T23:50:07.842Z,47.6
2017-08-05T23:52:05.521Z,47.6
2017-08-05T23:54:05.288Z,47.6
2017-08-05T23:56:05.848Z,47.6
2017-08-05T23:58:05.597Z,47.6
